sensor_id;sensor_type;location;lat;lon;timestamp;temperature;humidity
21216;DHT22;10765;50.954;5.322;2023-11-21T00:01:10;8.70;99.90
21216;DHT22;10765;50.954;5.322;2023-11-21T00:03:37;8.60;99.90
21216;DHT22;10765;50.954;5.322;2023-11-21T00:06:05;8.70;99.90
21216;DHT22;10765;50.954;5.322;2023-11-21T00:08:35;8.70;99.90
21216;DHT22;10765;50.954;5.322;2023-11-21T00:11:03;8.80;99.90
21216;DHT22;10765;50.954;5.322;2023-11-21T00:13:31;8.80;99.90
21216;DHT22;10765;50.954;5.322;2023-11-21T00:15:58;8.70;99.90
21216;DHT22;10765;50.954;5.322;2023-11-21T00:18:25;8.80;99.90
21216;DHT22;10765;50.954;5.322;2023-11-21T00:20:52;8.80;99.90
21216;DHT22;10765;50.954;5.322;2023-11-21T00:23:19;8.80;99.90
21216;DHT22;10765;50.954;5.322;2023-11-21T00:25:47;8.80;99.90
21216;DHT22;10765;50.954;5.322;2023-11-21T00:28:14;9.00;99.90
21216;DHT22;10765;50.954;5.322;2023-11-21T00:30:41;9.00;99.90
21216;DHT22;10765;50.954;5.322;2023-11-21T00:33:07;9.10;99.90
21216;DHT22;10765;50.954;5.322;2023-11-21T00:35:34;9.00;99.90
21216;DHT22;10765;50.954;5.322;2023-11-21T00:38:01;8.90;99.90
21216;DHT22;10765;50.954;5.322;2023-11-21T00:40:28;9.00;99.90
21216;DHT22;10765;50.954;5.322;2023-11-21T00:42:58;9.00;99.90
21216;DHT22;10765;50.954;5.322;2023-11-21T00:45:25;9.20;99.90
21216;DHT22;10765;50.954;5.322;2023-11-21T00:47:52;9.20;99.90
21216;DHT22;10765;50.954;5.322;2023-11-21T00:50:18;9.20;99.90
21216;DHT22;10765;50.954;5.322;2023-11-21T00:52:45;9.30;99.90
21216;DHT22;10765;50.954;5.322;2023-11-21T00:55:12;9.30;99.90
21216;DHT22;10765;50.954;5.322;2023-11-21T00:57:39;9.40;99.90
21216;DHT22;10765;50.954;5.322;2023-11-21T01:00:09;9.40;99.90
21216;DHT22;10765;50.954;5.322;2023-11-21T01:02:45;9.40;99.90
21216;DHT22;10765;50.954;5.322;2023-11-21T01:05:12;9.50;99.90
21216;DHT22;10765;50.954;5.322;2023-11-21T01:07:40;9.50;99.90
21216;DHT22;10765;50.954;5.322;2023-11-21T01:10:07;9.60;99.90
21216;DHT22;10765;50.954;5.322;2023-11-21T01:12:35;9.70;99.90
21216;DHT22;10765;50.954;5.322;2023-11-21T01:15:04;9.60;99.90
21216;DHT22;10765;50.954;5.322;2023-11-21T01:17:34;9.60;99.90
21216;DHT22;10765;50.954;5.322;2023-11-21T01:20:01;9.70;99.90
21216;DHT22;10765;50.954;5.322;2023-11-21T01:22:28;9.60;99.90
21216;DHT22;10765;50.954;5.322;2023-11-21T01:24:55;9.50;99.90
21216;DHT22;10765;50.954;5.322;2023-11-21T01:27:22;9.40;99.90
21216;DHT22;10765;50.954;5.322;2023-11-21T01:29:49;9.40;99.90
21216;DHT22;10765;50.954;5.322;2023-11-21T01:32:19;9.50;99.90
21216;DHT22;10765;50.954;5.322;2023-11-21T01:34:48;9.60;99.90
21216;DHT22;10765;50.954;5.322;2023-11-21T01:37:14;9.70;99.90
21216;DHT22;10765;50.954;5.322;2023-11-21T01:39:43;9.70;99.90
21216;DHT22;10765;50.954;5.322;2023-11-21T01:42:10;9.60;99.90
21216;DHT22;10765;50.954;5.322;2023-11-21T01:44:38;9.60;99.90
21216;DHT22;10765;50.954;5.322;2023-11-21T01:47:05;9.60;99.90
21216;DHT22;10765;50.954;5.322;2023-11-21T01:49:33;9.60;99.90
21216;DHT22;10765;50.954;5.322;2023-11-21T01:52:02;9.70;99.90
21216;DHT22;10765;50.954;5.322;2023-11-21T01:54:30;9.80;99.90
21216;DHT22;10765;50.954;5.322;2023-11-21T01:56:58;9.80;99.90
21216;DHT22;10765;50.954;5.322;2023-11-21T01:59:31;9.80;99.90
21216;DHT22;10765;50.954;5.322;2023-11-21T02:02:00;9.70;99.90
21216;DHT22;10765;50.954;5.322;2023-11-21T02:04:28;9.60;99.90
21216;DHT22;10765;50.954;5.322;2023-11-21T02:06:55;9.50;99.90
21216;DHT22;10765;50.954;5.322;2023-11-21T02:09:26;9.40;99.90
21216;DHT22;10765;50.954;5.322;2023-11-21T02:11:54;9.40;99.90
21216;DHT22;10765;50.954;5.322;2023-11-21T02:14:21;9.50;99.90
21216;DHT22;10765;50.954;5.322;2023-11-21T02:16:49;9.70;99.90
21216;DHT22;10765;50.954;5.322;2023-11-21T02:19:18;9.90;99.90
21216;DHT22;10765;50.954;5.322;2023-11-21T02:21:49;9.80;99.90
21216;DHT22;10765;50.954;5.322;2023-11-21T02:24:18;9.80;99.90
21216;DHT22;10765;50.954;5.322;2023-11-21T02:26:46;9.90;99.90
21216;DHT22;10765;50.954;5.322;2023-11-21T02:29:12;9.90;99.90
21216;DHT22;10765;50.954;5.322;2023-11-21T02:31:42;10.00;99.90
21216;DHT22;10765;50.954;5.322;2023-11-21T02:34:13;10.00;99.90
21216;DHT22;10765;50.954;5.322;2023-11-21T02:36:40;9.90;99.90
21216;DHT22;10765;50.954;5.322;2023-11-21T02:39:08;9.90;99.90
21216;DHT22;10765;50.954;5.322;2023-11-21T02:41:37;9.90;99.90
21216;DHT22;10765;50.954;5.322;2023-11-21T02:44:04;9.80;99.90
21216;DHT22;10765;50.954;5.322;2023-11-21T02:46:33;9.80;99.90
21216;DHT22;10765;50.954;5.322;2023-11-21T02:49:00;9.90;99.90
21216;DHT22;10765;50.954;5.322;2023-11-21T02:51:28;9.90;99.90
21216;DHT22;10765;50.954;5.322;2023-11-21T02:53:55;9.80;99.90
21216;DHT22;10765;50.954;5.322;2023-11-21T02:56:24;9.70;99.90
21216;DHT22;10765;50.954;5.322;2023-11-21T02:58:55;9.60;99.90
21216;DHT22;10765;50.954;5.322;2023-11-21T03:01:23;9.50;99.90
21216;DHT22;10765;50.954;5.322;2023-11-21T03:03:50;9.50;99.90
21216;DHT22;10765;50.954;5.322;2023-11-21T03:06:17;9.60;99.90
21216;DHT22;10765;50.954;5.322;2023-11-21T03:08:44;9.60;99.90
21216;DHT22;10765;50.954;5.322;2023-11-21T03:11:11;9.50;99.90
21216;DHT22;10765;50.954;5.322;2023-11-21T03:13:39;9.50;99.90
21216;DHT22;10765;50.954;5.322;2023-11-21T03:16:09;9.60;99.90
21216;DHT22;10765;50.954;5.322;2023-11-21T03:18:36;9.60;99.90
21216;DHT22;10765;50.954;5.322;2023-11-21T03:21:03;9.60;99.90
21216;DHT22;10765;50.954;5.322;2023-11-21T03:23:30;9.60;99.90
21216;DHT22;10765;50.954;5.322;2023-11-21T03:25:57;9.60;99.90
21216;DHT22;10765;50.954;5.322;2023-11-21T03:28:25;9.60;99.90
21216;DHT22;10765;50.954;5.322;2023-11-21T03:30:52;9.50;99.90
21216;DHT22;10765;50.954;5.322;2023-11-21T03:33:20;9.50;99.90
21216;DHT22;10765;50.954;5.322;2023-11-21T03:35:48;9.30;99.90
21216;DHT22;10765;50.954;5.322;2023-11-21T03:38:14;9.20;99.90
21216;DHT22;10765;50.954;5.322;2023-11-21T03:40:41;9.10;99.90
21216;DHT22;10765;50.954;5.322;2023-11-21T03:43:08;9.20;99.90
21216;DHT22;10765;50.954;5.322;2023-11-21T03:45:35;9.30;99.90
21216;DHT22;10765;50.954;5.322;2023-11-21T03:48:02;9.30;99.90
21216;DHT22;10765;50.954;5.322;2023-11-21T03:50:30;9.20;99.90
21216;DHT22;10765;50.954;5.322;2023-11-21T03:52:57;9.20;99.90
21216;DHT22;10765;50.954;5.322;2023-11-21T03:55:24;9.30;99.90
21216;DHT22;10765;50.954;5.322;2023-11-21T03:57:51;9.30;99.90
21216;DHT22;10765;50.954;5.322;2023-11-21T04:00:18;9.30;99.90
21216;DHT22;10765;50.954;5.322;2023-11-21T04:02:46;9.40;99.90
21216;DHT22;10765;50.954;5.322;2023-11-21T04:05:13;9.40;99.90
21216;DHT22;10765;50.954;5.322;2023-11-21T04:07:41;9.40;99.90
21216;DHT22;10765;50.954;5.322;2023-11-21T04:10:09;9.40;99.90
21216;DHT22;10765;50.954;5.322;2023-11-21T04:12:38;9.40;99.90
21216;DHT22;10765;50.954;5.322;2023-11-21T04:15:06;9.40;99.90
21216;DHT22;10765;50.954;5.322;2023-11-21T04:17:35;9.60;99.90
21216;DHT22;10765;50.954;5.322;2023-11-21T04:20:02;9.60;99.90
21216;DHT22;10765;50.954;5.322;2023-11-21T04:22:31;9.30;99.90
21216;DHT22;10765;50.954;5.322;2023-11-21T04:25:00;9.20;99.90
21216;DHT22;10765;50.954;5.322;2023-11-21T04:27:27;9.20;99.90
21216;DHT22;10765;50.954;5.322;2023-11-21T04:29:53;9.20;99.90
21216;DHT22;10765;50.954;5.322;2023-11-21T04:32:20;9.30;99.90
21216;DHT22;10765;50.954;5.322;2023-11-21T04:34:47;9.30;99.90
21216;DHT22;10765;50.954;5.322;2023-11-21T04:37:14;9.20;99.90
21216;DHT22;10765;50.954;5.322;2023-11-21T04:39:41;9.10;99.90
21216;DHT22;10765;50.954;5.322;2023-11-21T04:42:09;9.10;99.90
21216;DHT22;10765;50.954;5.322;2023-11-21T04:44:36;9.20;99.90
21216;DHT22;10765;50.954;5.322;2023-11-21T04:47:03;9.10;99.90
21216;DHT22;10765;50.954;5.322;2023-11-21T04:49:30;9.00;99.90
21216;DHT22;10765;50.954;5.322;2023-11-21T04:51:57;9.00;99.90
21216;DHT22;10765;50.954;5.322;2023-11-21T04:54:24;9.00;99.90
21216;DHT22;10765;50.954;5.322;2023-11-21T04:56:51;9.10;99.90
21216;DHT22;10765;50.954;5.322;2023-11-21T04:59:19;9.20;99.90
21216;DHT22;10765;50.954;5.322;2023-11-21T05:01:46;9.20;99.90
21216;DHT22;10765;50.954;5.322;2023-11-21T05:04:13;9.20;99.90
21216;DHT22;10765;50.954;5.322;2023-11-21T05:06:40;9.40;99.90
21216;DHT22;10765;50.954;5.322;2023-11-21T05:09:07;9.40;99.90
21216;DHT22;10765;50.954;5.322;2023-11-21T05:11:37;9.40;99.90
21216;DHT22;10765;50.954;5.322;2023-11-21T05:14:06;9.30;99.90
21216;DHT22;10765;50.954;5.322;2023-11-21T05:16:35;9.10;99.90
21216;DHT22;10765;50.954;5.322;2023-11-21T05:19:03;9.10;99.90
21216;DHT22;10765;50.954;5.322;2023-11-21T05:21:32;9.00;99.90
21216;DHT22;10765;50.954;5.322;2023-11-21T05:23:59;9.10;99.90
21216;DHT22;10765;50.954;5.322;2023-11-21T05:26:26;9.30;99.90
21216;DHT22;10765;50.954;5.322;2023-11-21T05:28:53;9.30;99.90
21216;DHT22;10765;50.954;5.322;2023-11-21T05:31:20;9.30;99.90
21216;DHT22;10765;50.954;5.322;2023-11-21T05:33:48;9.20;99.90
21216;DHT22;10765;50.954;5.322;2023-11-21T05:36:15;9.10;99.90
21216;DHT22;10765;50.954;5.322;2023-11-21T05:38:42;9.00;99.90
21216;DHT22;10765;50.954;5.322;2023-11-21T05:41:09;9.00;99.90
21216;DHT22;10765;50.954;5.322;2023-11-21T05:43:38;8.90;99.90
21216;DHT22;10765;50.954;5.322;2023-11-21T05:46:06;8.90;99.90
21216;DHT22;10765;50.954;5.322;2023-11-21T05:48:34;9.00;99.90
21216;DHT22;10765;50.954;5.322;2023-11-21T05:51:04;9.00;99.90
21216;DHT22;10765;50.954;5.322;2023-11-21T05:53:32;9.00;99.90
21216;DHT22;10765;50.954;5.322;2023-11-21T05:55:59;9.10;99.90
21216;DHT22;10765;50.954;5.322;2023-11-21T05:58:26;9.20;99.90
21216;DHT22;10765;50.954;5.322;2023-11-21T06:00:53;9.30;99.90
21216;DHT22;10765;50.954;5.322;2023-11-21T06:03:20;9.20;99.90
21216;DHT22;10765;50.954;5.322;2023-11-21T06:05:48;9.10;99.90
21216;DHT22;10765;50.954;5.322;2023-11-21T06:08:17;9.00;99.90
21216;DHT22;10765;50.954;5.322;2023-11-21T06:10:44;9.00;99.90
21216;DHT22;10765;50.954;5.322;2023-11-21T06:13:14;9.00;99.90
21216;DHT22;10765;50.954;5.322;2023-11-21T06:15:41;9.00;99.90
21216;DHT22;10765;50.954;5.322;2023-11-21T06:18:08;8.90;99.90
21216;DHT22;10765;50.954;5.322;2023-11-21T06:20:36;9.00;99.90
21216;DHT22;10765;50.954;5.322;2023-11-21T06:23:04;9.20;99.90
21216;DHT22;10765;50.954;5.322;2023-11-21T06:25:32;9.10;99.90
21216;DHT22;10765;50.954;5.322;2023-11-21T06:28:01;9.00;99.90
21216;DHT22;10765;50.954;5.322;2023-11-21T06:30:28;9.00;99.90
21216;DHT22;10765;50.954;5.322;2023-11-21T06:32:55;9.00;99.90
21216;DHT22;10765;50.954;5.322;2023-11-21T06:35:22;9.00;99.90
21216;DHT22;10765;50.954;5.322;2023-11-21T06:37:49;9.00;99.90
21216;DHT22;10765;50.954;5.322;2023-11-21T06:40:17;9.20;99.90
21216;DHT22;10765;50.954;5.322;2023-11-21T06:42:46;9.20;99.90
21216;DHT22;10765;50.954;5.322;2023-11-21T06:45:14;9.20;99.90
21216;DHT22;10765;50.954;5.322;2023-11-21T06:47:41;9.10;99.90
21216;DHT22;10765;50.954;5.322;2023-11-21T06:50:09;9.00;99.90
21216;DHT22;10765;50.954;5.322;2023-11-21T06:52:36;9.20;99.90
21216;DHT22;10765;50.954;5.322;2023-11-21T06:55:03;9.30;99.90
21216;DHT22;10765;50.954;5.322;2023-11-21T06:57:31;9.30;99.90
21216;DHT22;10765;50.954;5.322;2023-11-21T06:59:59;9.30;99.90
21216;DHT22;10765;50.954;5.322;2023-11-21T07:02:26;9.40;99.90
21216;DHT22;10765;50.954;5.322;2023-11-21T07:04:54;9.60;99.90
21216;DHT22;10765;50.954;5.322;2023-11-21T07:07:21;9.50;99.90
21216;DHT22;10765;50.954;5.322;2023-11-21T07:09:48;9.70;99.90
21216;DHT22;10765;50.954;5.322;2023-11-21T07:12:15;9.70;99.90
21216;DHT22;10765;50.954;5.322;2023-11-21T07:14:42;9.60;99.90
21216;DHT22;10765;50.954;5.322;2023-11-21T07:17:12;9.50;99.90
21216;DHT22;10765;50.954;5.322;2023-11-21T07:19:39;9.50;99.90
21216;DHT22;10765;50.954;5.322;2023-11-21T07:22:07;9.40;99.90
21216;DHT22;10765;50.954;5.322;2023-11-21T07:24:34;9.50;99.90
21216;DHT22;10765;50.954;5.322;2023-11-21T07:27:02;9.50;99.90
21216;DHT22;10765;50.954;5.322;2023-11-21T07:29:30;9.60;99.90
21216;DHT22;10765;50.954;5.322;2023-11-21T07:31:57;9.60;99.90
21216;DHT22;10765;50.954;5.322;2023-11-21T07:34:25;9.60;99.90
21216;DHT22;10765;50.954;5.322;2023-11-21T07:36:52;9.70;99.90
21216;DHT22;10765;50.954;5.322;2023-11-21T07:39:19;9.70;99.90
21216;DHT22;10765;50.954;5.322;2023-11-21T07:41:46;9.70;99.90
21216;DHT22;10765;50.954;5.322;2023-11-21T07:44:15;9.70;99.90
21216;DHT22;10765;50.954;5.322;2023-11-21T07:46:43;9.80;99.90
21216;DHT22;10765;50.954;5.322;2023-11-21T07:49:10;10.00;99.90
21216;DHT22;10765;50.954;5.322;2023-11-21T07:51:41;10.00;99.90
21216;DHT22;10765;50.954;5.322;2023-11-21T07:54:09;10.00;99.90
21216;DHT22;10765;50.954;5.322;2023-11-21T07:56:36;9.90;99.90
21216;DHT22;10765;50.954;5.322;2023-11-21T07:59:03;9.80;99.90
21216;DHT22;10765;50.954;5.322;2023-11-21T08:01:30;9.80;99.90
21216;DHT22;10765;50.954;5.322;2023-11-21T08:03:57;10.00;99.90
21216;DHT22;10765;50.954;5.322;2023-11-21T08:06:27;9.90;99.90
21216;DHT22;10765;50.954;5.322;2023-11-21T08:08:55;9.80;99.90
21216;DHT22;10765;50.954;5.322;2023-11-21T08:11:22;9.80;99.90
21216;DHT22;10765;50.954;5.322;2023-11-21T08:13:49;9.80;99.90
21216;DHT22;10765;50.954;5.322;2023-11-21T08:16:16;9.90;99.90
21216;DHT22;10765;50.954;5.322;2023-11-21T08:18:43;10.00;99.90
21216;DHT22;10765;50.954;5.322;2023-11-21T08:21:11;10.10;99.90
21216;DHT22;10765;50.954;5.322;2023-11-21T08:23:39;10.10;99.90
21216;DHT22;10765;50.954;5.322;2023-11-21T08:26:07;10.20;99.90
21216;DHT22;10765;50.954;5.322;2023-11-21T08:28:34;10.10;99.90
21216;DHT22;10765;50.954;5.322;2023-11-21T08:31:01;10.00;99.90
21216;DHT22;10765;50.954;5.322;2023-11-21T08:33:28;10.00;99.90
21216;DHT22;10765;50.954;5.322;2023-11-21T08:35:55;10.00;99.90
21216;DHT22;10765;50.954;5.322;2023-11-21T08:38:22;10.00;99.90
21216;DHT22;10765;50.954;5.322;2023-11-21T08:40:49;10.00;99.90
21216;DHT22;10765;50.954;5.322;2023-11-21T08:43:17;9.90;99.90
21216;DHT22;10765;50.954;5.322;2023-11-21T08:45:45;9.90;99.90
21216;DHT22;10765;50.954;5.322;2023-11-21T08:48:12;9.80;99.90
21216;DHT22;10765;50.954;5.322;2023-11-21T08:50:39;9.70;99.90
21216;DHT22;10765;50.954;5.322;2023-11-21T08:53:06;9.80;99.90
21216;DHT22;10765;50.954;5.322;2023-11-21T08:55:33;9.90;99.90
21216;DHT22;10765;50.954;5.322;2023-11-21T08:58:03;10.00;99.90
21216;DHT22;10765;50.954;5.322;2023-11-21T09:00:32;10.00;99.90
21216;DHT22;10765;50.954;5.322;2023-11-21T09:03:01;9.90;99.90
21216;DHT22;10765;50.954;5.322;2023-11-21T09:05:28;9.90;99.90
21216;DHT22;10765;50.954;5.322;2023-11-21T09:07:55;10.00;99.90
21216;DHT22;10765;50.954;5.322;2023-11-21T09:10:22;10.10;99.90
21216;DHT22;10765;50.954;5.322;2023-11-21T09:12:50;10.10;99.90
21216;DHT22;10765;50.954;5.322;2023-11-21T09:15:18;10.10;99.90
21216;DHT22;10765;50.954;5.322;2023-11-21T09:17:47;10.30;99.90
21216;DHT22;10765;50.954;5.322;2023-11-21T09:20:14;10.40;99.90
21216;DHT22;10765;50.954;5.322;2023-11-21T09:22:41;10.30;99.90
21216;DHT22;10765;50.954;5.322;2023-11-21T09:25:10;10.40;99.90
21216;DHT22;10765;50.954;5.322;2023-11-21T09:27:38;10.50;99.90
21216;DHT22;10765;50.954;5.322;2023-11-21T09:30:06;10.60;99.90
21216;DHT22;10765;50.954;5.322;2023-11-21T09:32:35;10.60;99.90
21216;DHT22;10765;50.954;5.322;2023-11-21T09:35:04;10.40;99.90
21216;DHT22;10765;50.954;5.322;2023-11-21T09:37:34;10.50;99.90
21216;DHT22;10765;50.954;5.322;2023-11-21T09:40:01;10.60;99.90
21216;DHT22;10765;50.954;5.322;2023-11-21T09:42:33;10.70;99.90
21216;DHT22;10765;50.954;5.322;2023-11-21T09:45:05;10.70;99.90
21216;DHT22;10765;50.954;5.322;2023-11-21T09:47:38;10.70;99.90
21216;DHT22;10765;50.954;5.322;2023-11-21T09:50:07;10.80;99.90
21216;DHT22;10765;50.954;5.322;2023-11-21T09:52:44;10.90;99.90
21216;DHT22;10765;50.954;5.322;2023-11-21T09:55:16;10.90;99.90
21216;DHT22;10765;50.954;5.322;2023-11-21T09:57:47;10.80;99.90
21216;DHT22;10765;50.954;5.322;2023-11-21T10:00:16;10.70;99.90
21216;DHT22;10765;50.954;5.322;2023-11-21T10:02:45;10.80;99.90
21216;DHT22;10765;50.954;5.322;2023-11-21T10:05:16;10.80;99.90
21216;DHT22;10765;50.954;5.322;2023-11-21T10:07:49;10.70;99.90
21216;DHT22;10765;50.954;5.322;2023-11-21T10:10:19;10.70;99.90
21216;DHT22;10765;50.954;5.322;2023-11-21T10:12:50;10.90;99.90
21216;DHT22;10765;50.954;5.322;2023-11-21T10:15:21;11.00;99.90
21216;DHT22;10765;50.954;5.322;2023-11-21T10:17:49;10.90;99.90
21216;DHT22;10765;50.954;5.322;2023-11-21T10:20:20;10.80;99.90
21216;DHT22;10765;50.954;5.322;2023-11-21T10:22:47;10.50;99.90
21216;DHT22;10765;50.954;5.322;2023-11-21T10:25:14;10.60;99.90
21216;DHT22;10765;50.954;5.322;2023-11-21T10:27:41;10.60;99.90
21216;DHT22;10765;50.954;5.322;2023-11-21T10:30:10;10.60;99.90
21216;DHT22;10765;50.954;5.322;2023-11-21T10:32:38;10.70;99.90
21216;DHT22;10765;50.954;5.322;2023-11-21T10:35:07;10.80;99.90
21216;DHT22;10765;50.954;5.322;2023-11-21T10:37:37;10.80;99.90
21216;DHT22;10765;50.954;5.322;2023-11-21T10:40:06;10.80;99.90
21216;DHT22;10765;50.954;5.322;2023-11-21T10:42:37;10.80;99.90
21216;DHT22;10765;50.954;5.322;2023-11-21T10:45:05;10.70;99.90
21216;DHT22;10765;50.954;5.322;2023-11-21T10:47:38;10.60;99.90
21216;DHT22;10765;50.954;5.322;2023-11-21T10:50:06;10.80;99.90
21216;DHT22;10765;50.954;5.322;2023-11-21T10:52:39;10.80;99.90
21216;DHT22;10765;50.954;5.322;2023-11-21T10:55:16;10.70;99.90
21216;DHT22;10765;50.954;5.322;2023-11-21T10:57:45;10.90;99.90
21216;DHT22;10765;50.954;5.322;2023-11-21T11:00:16;11.10;99.90
21216;DHT22;10765;50.954;5.322;2023-11-21T11:02:47;11.30;99.90
21216;DHT22;10765;50.954;5.322;2023-11-21T11:05:15;11.30;99.90
21216;DHT22;10765;50.954;5.322;2023-11-21T11:07:48;11.30;99.90
21216;DHT22;10765;50.954;5.322;2023-11-21T11:10:18;11.20;99.90
21216;DHT22;10765;50.954;5.322;2023-11-21T11:12:47;11.20;99.90
21216;DHT22;10765;50.954;5.322;2023-11-21T11:15:15;11.20;99.90
21216;DHT22;10765;50.954;5.322;2023-11-21T11:17:42;11.20;99.90
21216;DHT22;10765;50.954;5.322;2023-11-21T11:20:13;11.10;99.90
21216;DHT22;10765;50.954;5.322;2023-11-21T11:22:47;11.10;99.90
21216;DHT22;10765;50.954;5.322;2023-11-21T11:25:27;11.10;99.90
21216;DHT22;10765;50.954;5.322;2023-11-21T11:28:01;11.00;99.90
21216;DHT22;10765;50.954;5.322;2023-11-21T11:30:40;11.00;99.90
21216;DHT22;10765;50.954;5.322;2023-11-21T11:33:21;11.10;99.90
21216;DHT22;10765;50.954;5.322;2023-11-21T11:35:56;11.20;99.90
21216;DHT22;10765;50.954;5.322;2023-11-21T11:38:27;11.30;99.90
21216;DHT22;10765;50.954;5.322;2023-11-21T11:41:01;11.20;99.90
21216;DHT22;10765;50.954;5.322;2023-11-21T11:43:29;11.30;99.90
21216;DHT22;10765;50.954;5.322;2023-11-21T11:45:59;11.40;99.90
21216;DHT22;10765;50.954;5.322;2023-11-21T11:48:29;11.40;99.90
21216;DHT22;10765;50.954;5.322;2023-11-21T11:51:03;11.30;99.90
21216;DHT22;10765;50.954;5.322;2023-11-21T11:53:38;11.40;99.90
21216;DHT22;10765;50.954;5.322;2023-11-21T11:56:26;11.30;99.90
21216;DHT22;10765;50.954;5.322;2023-11-21T11:58:57;11.20;99.90
21216;DHT22;10765;50.954;5.322;2023-11-21T12:01:25;11.20;99.90
21216;DHT22;10765;50.954;5.322;2023-11-21T12:04:23;11.30;99.90
21216;DHT22;10765;50.954;5.322;2023-11-21T12:06:57;11.40;99.90
21216;DHT22;10765;50.954;5.322;2023-11-21T12:09:30;11.30;99.90
21216;DHT22;10765;50.954;5.322;2023-11-21T12:11:58;11.30;99.90
21216;DHT22;10765;50.954;5.322;2023-11-21T12:14:25;11.40;99.90
21216;DHT22;10765;50.954;5.322;2023-11-21T12:16:53;11.50;99.90
21216;DHT22;10765;50.954;5.322;2023-11-21T12:19:20;11.50;99.90
21216;DHT22;10765;50.954;5.322;2023-11-21T12:21:48;11.40;99.90
21216;DHT22;10765;50.954;5.322;2023-11-21T12:24:16;11.40;99.90
21216;DHT22;10765;50.954;5.322;2023-11-21T12:26:44;11.40;99.90
21216;DHT22;10765;50.954;5.322;2023-11-21T12:29:11;11.30;99.90
21216;DHT22;10765;50.954;5.322;2023-11-21T12:31:38;11.30;99.90
21216;DHT22;10765;50.954;5.322;2023-11-21T12:34:06;11.40;99.90
21216;DHT22;10765;50.954;5.322;2023-11-21T12:36:34;11.30;99.90
21216;DHT22;10765;50.954;5.322;2023-11-21T12:39:02;11.30;99.90
21216;DHT22;10765;50.954;5.322;2023-11-21T12:41:29;11.20;99.90
21216;DHT22;10765;50.954;5.322;2023-11-21T12:43:58;11.10;99.90
21216;DHT22;10765;50.954;5.322;2023-11-21T12:46:25;11.00;99.90
21216;DHT22;10765;50.954;5.322;2023-11-21T12:48:55;11.00;99.90
21216;DHT22;10765;50.954;5.322;2023-11-21T12:51:23;11.10;99.90
21216;DHT22;10765;50.954;5.322;2023-11-21T12:53:50;11.10;99.90
21216;DHT22;10765;50.954;5.322;2023-11-21T12:56:18;11.20;99.90
21216;DHT22;10765;50.954;5.322;2023-11-21T12:58:48;11.30;99.90
21216;DHT22;10765;50.954;5.322;2023-11-21T13:01:17;11.40;99.90
21216;DHT22;10765;50.954;5.322;2023-11-21T13:03:48;11.60;99.90
21216;DHT22;10765;50.954;5.322;2023-11-21T13:06:18;11.70;99.90
21216;DHT22;10765;50.954;5.322;2023-11-21T13:08:45;11.50;99.90
21216;DHT22;10765;50.954;5.322;2023-11-21T13:11:13;11.30;99.90
21216;DHT22;10765;50.954;5.322;2023-11-21T13:13:41;11.40;99.90
21216;DHT22;10765;50.954;5.322;2023-11-21T13:16:09;11.40;99.90
21216;DHT22;10765;50.954;5.322;2023-11-21T13:18:37;11.30;99.90
21216;DHT22;10765;50.954;5.322;2023-11-21T13:21:06;11.10;99.90
21216;DHT22;10765;50.954;5.322;2023-11-21T13:23:37;11.00;99.90
21216;DHT22;10765;50.954;5.322;2023-11-21T13:26:04;11.10;99.90
21216;DHT22;10765;50.954;5.322;2023-11-21T13:28:32;11.30;99.90
21216;DHT22;10765;50.954;5.322;2023-11-21T13:31:00;11.50;99.90
21216;DHT22;10765;50.954;5.322;2023-11-21T13:33:35;11.70;99.90
21216;DHT22;10765;50.954;5.322;2023-11-21T13:36:05;11.70;99.90
21216;DHT22;10765;50.954;5.322;2023-11-21T13:38:35;11.70;99.90
21216;DHT22;10765;50.954;5.322;2023-11-21T13:41:03;11.70;99.90
21216;DHT22;10765;50.954;5.322;2023-11-21T13:43:33;11.70;99.90
21216;DHT22;10765;50.954;5.322;2023-11-21T13:46:00;11.60;99.90
21216;DHT22;10765;50.954;5.322;2023-11-21T13:48:33;11.50;99.90
21216;DHT22;10765;50.954;5.322;2023-11-21T13:51:09;11.50;99.90
21216;DHT22;10765;50.954;5.322;2023-11-21T13:53:43;11.40;99.90
21216;DHT22;10765;50.954;5.322;2023-11-21T13:56:10;11.50;99.90
21216;DHT22;10765;50.954;5.322;2023-11-21T13:58:38;11.50;99.90
21216;DHT22;10765;50.954;5.322;2023-11-21T14:01:12;11.40;99.90
21216;DHT22;10765;50.954;5.322;2023-11-21T14:03:58;11.40;99.90
21216;DHT22;10765;50.954;5.322;2023-11-21T14:06:35;11.40;99.90
21216;DHT22;10765;50.954;5.322;2023-11-21T14:09:13;11.40;99.90
21216;DHT22;10765;50.954;5.322;2023-11-21T14:11:49;11.30;99.90
21216;DHT22;10765;50.954;5.322;2023-11-21T14:14:16;11.40;99.90
21216;DHT22;10765;50.954;5.322;2023-11-21T14:16:43;11.30;99.90
21216;DHT22;10765;50.954;5.322;2023-11-21T14:19:10;11.30;99.90
21216;DHT22;10765;50.954;5.322;2023-11-21T14:21:43;11.30;99.90
21216;DHT22;10765;50.954;5.322;2023-11-21T14:24:10;11.40;99.90
21216;DHT22;10765;50.954;5.322;2023-11-21T14:26:39;11.30;99.90
21216;DHT22;10765;50.954;5.322;2023-11-21T14:29:07;11.40;99.90
21216;DHT22;10765;50.954;5.322;2023-11-21T14:31:34;11.40;99.90
21216;DHT22;10765;50.954;5.322;2023-11-21T14:34:01;11.40;99.90
21216;DHT22;10765;50.954;5.322;2023-11-21T14:36:28;11.30;99.90
21216;DHT22;10765;50.954;5.322;2023-11-21T14:38:57;11.30;99.90
21216;DHT22;10765;50.954;5.322;2023-11-21T14:41:24;11.30;99.90
21216;DHT22;10765;50.954;5.322;2023-11-21T14:43:53;11.40;99.90
21216;DHT22;10765;50.954;5.322;2023-11-21T14:46:21;11.50;99.90
21216;DHT22;10765;50.954;5.322;2023-11-21T14:48:47;11.40;99.90
21216;DHT22;10765;50.954;5.322;2023-11-21T14:51:24;11.30;99.90
21216;DHT22;10765;50.954;5.322;2023-11-21T14:53:57;11.30;99.90
21216;DHT22;10765;50.954;5.322;2023-11-21T14:56:32;11.30;99.90
21216;DHT22;10765;50.954;5.322;2023-11-21T14:59:00;11.20;99.90
21216;DHT22;10765;50.954;5.322;2023-11-21T15:01:34;11.30;99.90
21216;DHT22;10765;50.954;5.322;2023-11-21T15:04:11;11.40;99.90
21216;DHT22;10765;50.954;5.322;2023-11-21T15:06:48;11.30;99.90
21216;DHT22;10765;50.954;5.322;2023-11-21T15:09:15;11.40;99.90
21216;DHT22;10765;50.954;5.322;2023-11-21T15:12:02;11.40;99.90
21216;DHT22;10765;50.954;5.322;2023-11-21T15:14:39;11.20;99.90
21216;DHT22;10765;50.954;5.322;2023-11-21T15:17:06;11.00;99.90
21216;DHT22;10765;50.954;5.322;2023-11-21T15:19:33;11.00;99.90
21216;DHT22;10765;50.954;5.322;2023-11-21T15:22:01;10.90;99.90
21216;DHT22;10765;50.954;5.322;2023-11-21T15:24:29;10.90;99.90
21216;DHT22;10765;50.954;5.322;2023-11-21T15:26:56;10.90;99.90
21216;DHT22;10765;50.954;5.322;2023-11-21T15:29:24;10.70;99.90
21216;DHT22;10765;50.954;5.322;2023-11-21T15:31:52;10.70;99.90
21216;DHT22;10765;50.954;5.322;2023-11-21T15:34:22;10.60;99.90
21216;DHT22;10765;50.954;5.322;2023-11-21T15:36:49;10.50;99.90
21216;DHT22;10765;50.954;5.322;2023-11-21T15:39:18;10.50;99.90
21216;DHT22;10765;50.954;5.322;2023-11-21T15:41:48;10.50;99.90
21216;DHT22;10765;50.954;5.322;2023-11-21T15:44:16;10.60;99.90
21216;DHT22;10765;50.954;5.322;2023-11-21T15:46:43;10.70;99.90
21216;DHT22;10765;50.954;5.322;2023-11-21T15:49:10;10.60;99.90